Monday, February 19, 2018, 10:09 AM GMT
Back to Local

CWIS, Charlevoix CS , Que.

Location: , , Canada Lat: 47.283
Local Time: 10:09 AM GMT (10:09 GMT) Lon: -70.633
Time Zone: GMT Elev: 2358 ft

Show me the last for .
Show Coded

Time T Td Feel RH Dir Speed Gust Alt SLP Vis Weather Sky Remarks
2018-02-19 09:00 17 16 9 95 230° 6 - - 30.30 0 None
2018-02-19 08:00 19 16 11 88 220° 6 - - 30.30 0 None
2018-02-19 07:00 15 13 6 93 220° 6 - - 30.32 0 None
2018-02-19 06:00 14 13 5 94 210° 6 - - 30.32 0 None
2018-02-19 05:00 15 13 7 92 220° 5 - - 30.33 0 None
2018-02-19 04:00 11 10 - 96 210° 2 - - 30.34 0 None
2018-02-19 03:00 13 12 8 93 210° 3 - - 30.32 0 None
2018-02-19 02:00 12 11 6 96 190° 3 - - 30.33 0 None
2018-02-19 01:00 13 11 - 95 230° 1 - - 30.33 0 None
2018-02-19 00:00 14 12 - 93 240° 2 - - 30.30 0 None
2018-02-18 23:00 16 12 - 83 250° 1 - - 30.27 0 None
2018-02-18 21:00 21 12 - 68 260° 2 - - 30.16 0 None
2018-02-18 20:00 24 13 10 64 300° 9 17 - 30.12 0 None
2018-02-18 19:00 23 14 16 67 280° 6 - - 30.09 0 None
2018-02-18 18:00 23 14 16 67 270° 6 - - 30.07 0 None
2018-02-18 17:00 24 14 16 64 280° 7 - - 30.04 0 None
2018-02-18 15:00 20 15 16 78 260° 3 - - 30.01 0 None
2018-02-18 14:00 18 15 - 90 230° 2 - - 29.98 0 None
2018-02-18 13:00 15 14 - 96 220° 1 - - 29.97 0 None
2018-02-18 12:00 14 14 - 97 240° 2 - - 29.95 0 None
2018-02-18 11:00 17 15 - 91 230° 2 - - 29.93 0 None

Support USWX by starting your Amazon purchase here.